createdAt,value
2019-03-29T00:01:12.385Z,10.10
2019-03-29T00:03:42.125Z,10.00
2019-03-29T00:06:12.027Z,10.10
2019-03-29T00:08:41.637Z,10.10
2019-03-29T00:11:11.246Z,10.10
2019-03-29T00:13:40.799Z,10.10
2019-03-29T00:16:10.362Z,10.10
2019-03-29T00:18:39.871Z,10.10
2019-03-29T00:21:09.493Z,10.10
2019-03-29T00:23:39.054Z,10.10
2019-03-29T00:26:08.677Z,10.00
2019-03-29T00:28:38.258Z,10.00
2019-03-29T00:31:07.910Z,10.00
2019-03-29T00:33:39.922Z,10.00
2019-03-29T00:36:09.469Z,10.00
2019-03-29T00:38:39.072Z,10.00
2019-03-29T00:41:08.640Z,10.10
2019-03-29T00:43:38.177Z,10.00
2019-03-29T00:46:07.683Z,10.00
2019-03-29T00:48:37.237Z,10.00
2019-03-29T00:51:06.958Z,10.00
2019-03-29T00:53:36.490Z,10.00
2019-03-29T00:56:06.253Z,10.00
2019-03-29T00:58:35.791Z,10.00
2019-03-29T01:01:05.468Z,10.00
2019-03-29T01:03:35.122Z,10.00
2019-03-29T01:06:05.007Z,10.00
2019-03-29T01:08:34.713Z,10.00
2019-03-29T01:11:04.663Z,10.00
2019-03-29T01:13:34.416Z,10.00
2019-03-29T01:16:04.169Z,10.00
2019-03-29T01:18:34.087Z,10.00
2019-03-29T01:21:03.838Z,10.00
2019-03-29T01:23:33.470Z,10.00
2019-03-29T01:26:03.277Z,10.00
2019-03-29T01:28:32.929Z,10.10
2019-03-29T01:31:02.733Z,10.10
2019-03-29T01:33:32.506Z,10.10
2019-03-29T01:36:02.292Z,10.10
2019-03-29T01:44:40.627Z,10.20
2019-03-29T01:47:10.322Z,10.20
2019-03-29T01:49:39.899Z,10.20
2019-03-29T01:52:09.518Z,10.20
2019-03-29T01:54:39.093Z,10.10
2019-03-29T01:57:08.832Z,10.20
2019-03-29T01:59:38.455Z,10.10
2019-03-29T02:02:08.062Z,10.00
2019-03-29T02:04:37.673Z,9.90
2019-03-29T02:07:07.272Z,9.90
2019-03-29T02:09:36.876Z,10.00
2019-03-29T02:12:07.068Z,9.90
2019-03-29T02:14:37.044Z,9.90
2019-03-29T02:17:06.720Z,9.90
2019-03-29T02:19:36.430Z,9.90
2019-03-29T02:22:06.105Z,9.90
2019-03-29T02:24:35.712Z,9.80
2019-03-29T02:27:05.354Z,9.80
2019-03-29T02:29:34.977Z,9.80
2019-03-29T02:32:04.594Z,9.80
2019-03-29T02:34:34.201Z,9.80
2019-03-29T02:37:03.734Z,9.70
2019-03-29T02:39:33.476Z,9.70
2019-03-29T02:42:03.041Z,9.70
2019-03-29T02:44:34.733Z,9.70
2019-03-29T02:47:03.945Z,9.70
2019-03-29T02:49:33.539Z,9.80
2019-03-29T02:52:03.357Z,9.80
2019-03-29T02:54:32.886Z,9.80
2019-03-29T02:57:02.549Z,9.80
2019-03-29T02:59:33.302Z,9.80
2019-03-29T03:02:03.069Z,9.80
2019-03-29T03:04:32.680Z,9.80
2019-03-29T03:07:02.306Z,9.80
2019-03-29T03:09:31.956Z,9.80
2019-03-29T03:12:01.665Z,9.80
2019-03-29T03:14:31.257Z,9.80
2019-03-29T03:17:00.930Z,9.80
2019-03-29T03:19:30.657Z,9.90
2019-03-29T03:22:00.296Z,9.90
2019-03-29T03:24:29.831Z,9.90
2019-03-29T03:26:59.718Z,9.90
2019-03-29T03:29:29.257Z,9.90
2019-03-29T03:31:58.933Z,9.90
2019-03-29T03:34:28.469Z,9.90
2019-03-29T03:36:58.044Z,10.00
2019-03-29T03:39:32.253Z,10.00
2019-03-29T03:41:58.902Z,10.10
2019-03-29T03:44:28.525Z,10.10
2019-03-29T03:46:58.070Z,10.10
2019-03-29T03:49:27.746Z,10.10
2019-03-29T03:51:57.645Z,10.10
2019-03-29T03:54:27.391Z,10.10
2019-03-29T03:56:57.213Z,10.10
2019-03-29T03:59:29.067Z,10.10
2019-03-29T04:01:58.606Z,10.20
2019-03-29T04:04:28.376Z,10.10
2019-03-29T04:06:58.064Z,10.10
2019-03-29T04:09:27.834Z,10.10
2019-03-29T04:11:57.427Z,10.00
2019-03-29T04:14:27.135Z,10.00
2019-03-29T04:16:56.839Z,10.00
2019-03-29T04:19:26.338Z,10.00
2019-03-29T04:21:55.915Z,10.10
2019-03-29T04:24:25.582Z,10.10
2019-03-29T04:26:55.153Z,10.10
2019-03-29T04:29:24.698Z,10.10
2019-03-29T04:31:54.222Z,10.10
2019-03-29T04:34:23.742Z,10.10
2019-03-29T04:36:53.322Z,10.10
2019-03-29T04:39:23.069Z,10.10
2019-03-29T04:41:52.616Z,10.00
2019-03-29T04:44:22.353Z,10.00
2019-03-29T04:46:51.921Z,9.90
2019-03-29T04:49:21.579Z,9.90
2019-03-29T04:51:51.172Z,9.90
2019-03-29T04:54:20.819Z,10.00
2019-03-29T04:56:50.494Z,10.00
2019-03-29T04:59:20.033Z,10.00
2019-03-29T05:01:49.657Z,10.00
2019-03-29T05:04:19.311Z,10.00
2019-03-29T05:06:48.847Z,10.00
2019-03-29T05:09:18.517Z,10.00
2019-03-29T05:11:48.178Z,10.10
2019-03-29T05:14:17.810Z,10.10
2019-03-29T05:16:47.350Z,10.10
2019-03-29T05:19:16.983Z,10.10
2019-03-29T05:21:46.557Z,10.10
2019-03-29T05:24:16.185Z,10.20
2019-03-29T05:26:45.753Z,10.20
2019-03-29T05:29:15.428Z,10.20
2019-03-29T05:31:44.967Z,10.20
2019-03-29T05:34:14.621Z,10.20
2019-03-29T05:36:44.168Z,10.30
2019-03-29T05:39:13.740Z,10.20
2019-03-29T05:41:43.428Z,10.10
2019-03-29T05:44:13.113Z,10.10
2019-03-29T05:46:42.765Z,10.10
2019-03-29T05:49:12.427Z,10.00
2019-03-29T05:51:42.492Z,10.00
2019-03-29T05:54:12.057Z,10.10
2019-03-29T05:56:41.736Z,10.20
2019-03-29T05:59:11.447Z,10.20
2019-03-29T06:01:41.250Z,10.20
2019-03-29T06:04:11.047Z,10.30
2019-03-29T06:06:40.807Z,10.20
2019-03-29T06:09:10.450Z,10.30
2019-03-29T06:11:40.104Z,10.40
2019-03-29T06:14:09.823Z,10.50
2019-03-29T06:16:39.598Z,10.50
2019-03-29T06:19:09.227Z,10.60
2019-03-29T06:21:38.856Z,10.60
2019-03-29T06:24:08.556Z,10.70
2019-03-29T06:26:38.203Z,10.70
2019-03-29T06:29:07.860Z,10.80
2019-03-29T06:31:37.439Z,10.70
2019-03-29T06:34:07.147Z,10.80
2019-03-29T06:36:37.530Z,10.90
2019-03-29T06:39:07.815Z,10.90
2019-03-29T06:41:37.477Z,11.00
2019-03-29T06:44:07.198Z,10.90
2019-03-29T06:46:36.734Z,10.90
2019-03-29T06:49:06.284Z,11.00
2019-03-29T06:51:35.908Z,11.00
2019-03-29T06:54:05.683Z,11.00
2019-03-29T06:56:35.298Z,11.00
2019-03-29T06:59:04.890Z,11.00
2019-03-29T07:01:34.671Z,10.90
2019-03-29T07:04:04.350Z,10.90
2019-03-29T07:06:33.913Z,11.00
2019-03-29T07:09:05.595Z,11.20
2019-03-29T07:11:35.161Z,11.10
2019-03-29T07:14:04.853Z,11.20
2019-03-29T07:16:34.523Z,11.20
2019-03-29T07:19:05.078Z,11.00
2019-03-29T07:21:35.069Z,11.20
2019-03-29T07:24:04.902Z,11.30
2019-03-29T07:26:34.525Z,11.30
2019-03-29T07:29:04.361Z,11.40
2019-03-29T07:31:34.089Z,11.30
2019-03-29T07:34:03.791Z,11.40
2019-03-29T07:36:33.478Z,11.40
2019-03-29T07:39:04.594Z,11.50
2019-03-29T07:41:34.190Z,11.70
2019-03-29T07:44:03.752Z,11.80
2019-03-29T07:46:33.459Z,11.80
2019-03-29T07:49:03.080Z,11.70
2019-03-29T07:51:32.660Z,11.70
2019-03-29T07:54:02.336Z,11.80
2019-03-29T07:56:31.838Z,11.80
2019-03-29T07:59:01.481Z,11.90
2019-03-29T08:01:32.564Z,12.10
2019-03-29T08:04:02.393Z,12.30
2019-03-29T08:06:32.101Z,12.40
2019-03-29T08:09:01.771Z,12.40
2019-03-29T08:11:44.938Z,12.50
2019-03-29T08:14:02.695Z,12.60
2019-03-29T08:16:32.425Z,12.70
2019-03-29T08:19:02.166Z,12.60
2019-03-29T08:21:31.820Z,12.60
2019-03-29T08:24:01.397Z,12.60
2019-03-29T08:26:31.203Z,12.60
2019-03-29T08:29:00.919Z,12.80
2019-03-29T08:31:30.638Z,12.90
2019-03-29T08:34:00.281Z,12.90
2019-03-29T08:36:29.804Z,12.80
2019-03-29T08:38:59.509Z,12.70
2019-03-29T08:41:29.158Z,12.70
2019-03-29T08:43:58.838Z,12.60
2019-03-29T08:46:28.522Z,12.60
2019-03-29T08:48:58.153Z,12.60
2019-03-29T08:51:27.692Z,12.60
2019-03-29T08:53:57.418Z,12.50
2019-03-29T08:56:27.119Z,12.50
2019-03-29T08:58:56.652Z,12.50
2019-03-29T09:01:26.745Z,12.30
2019-03-29T09:04:04.950Z,12.40
2019-03-29T09:06:30.166Z,12.50
2019-03-29T09:08:59.259Z,12.40
2019-03-29T09:11:28.876Z,12.30
2019-03-29T09:13:58.512Z,12.30
2019-03-29T09:16:28.144Z,12.30
2019-03-29T09:18:57.925Z,12.30
2019-03-29T09:21:27.533Z,12.20
2019-03-29T09:23:57.088Z,12.20
2019-03-29T09:26:26.951Z,12.30
2019-03-29T09:28:56.609Z,12.20
2019-03-29T09:31:26.410Z,12.20
2019-03-29T09:33:58.524Z,12.20
2019-03-29T09:36:27.469Z,12.10
2019-03-29T09:38:57.127Z,12.10
2019-03-29T09:41:26.824Z,12.10
2019-03-29T09:43:56.728Z,12.10
2019-03-29T09:46:26.370Z,12.10
2019-03-29T09:48:56.109Z,12.00
2019-03-29T09:51:25.813Z,12.00
2019-03-29T09:53:57.930Z,11.90
2019-03-29T09:56:38.121Z,12.00
2019-03-29T09:58:59.193Z,12.00
2019-03-29T10:01:28.802Z,12.20
2019-03-29T10:03:58.416Z,12.20
2019-03-29T10:06:29.973Z,12.30
2019-03-29T10:08:59.613Z,12.40
2019-03-29T10:11:29.391Z,12.20
2019-03-29T10:13:59.030Z,12.00
2019-03-29T10:16:28.554Z,12.10
2019-03-29T10:18:58.395Z,12.10
2019-03-29T10:21:28.268Z,12.00
2019-03-29T10:23:57.925Z,11.90
2019-03-29T10:26:27.578Z,12.20
2019-03-29T10:28:57.484Z,12.30
2019-03-29T10:31:32.352Z,12.20
2019-03-29T10:34:00.897Z,12.30
2019-03-29T10:36:30.615Z,12.10
2019-03-29T10:39:00.159Z,12.20
2019-03-29T10:41:29.923Z,12.30
2019-03-29T10:43:59.617Z,12.40
2019-03-29T10:46:29.307Z,12.50
2019-03-29T10:48:58.989Z,12.70
2019-03-29T10:51:28.704Z,12.80
2019-03-29T10:53:58.524Z,12.70
2019-03-29T10:56:34.493Z,12.80
2019-03-29T10:58:59.464Z,13.00
2019-03-29T11:01:29.184Z,13.10
2019-03-29T11:04:01.627Z,13.20
2019-03-29T11:06:31.241Z,13.30
2019-03-29T11:09:00.953Z,13.30
2019-03-29T11:11:30.711Z,13.30
2019-03-29T11:14:00.422Z,13.10
2019-03-29T11:16:30.211Z,13.30
2019-03-29T11:18:59.921Z,13.30
2019-03-29T11:21:29.660Z,13.10
2019-03-29T11:24:00.819Z,13.10
2019-03-29T11:26:31.770Z,13.00
2019-03-29T11:29:01.467Z,12.90
2019-03-29T11:31:31.357Z,13.00
2019-03-29T11:34:01.093Z,13.00
2019-03-29T11:36:30.759Z,13.10
2019-03-29T11:39:03.866Z,12.90
2019-03-29T11:41:33.852Z,13.10
2019-03-29T11:44:03.605Z,13.40
2019-03-29T11:46:33.531Z,13.30
2019-03-29T11:49:03.145Z,13.30
2019-03-29T11:51:32.860Z,13.40
2019-03-29T11:54:02.579Z,13.70
2019-03-29T11:56:33.003Z,13.70
2019-03-29T11:59:02.699Z,13.60
2019-03-29T12:01:32.661Z,13.60
2019-03-29T12:04:02.365Z,13.40
2019-03-29T12:06:31.881Z,13.20
2019-03-29T12:09:01.622Z,13.00
2019-03-29T12:11:31.201Z,12.90
2019-03-29T12:14:00.965Z,13.00
2019-03-29T12:16:30.745Z,13.20
2019-03-29T12:19:00.317Z,13.40
2019-03-29T12:21:29.954Z,13.50
2019-03-29T12:23:59.668Z,13.60
2019-03-29T12:26:29.256Z,13.90
2019-03-29T12:28:58.931Z,13.80
2019-03-29T12:31:28.452Z,13.60
